createdAt,value
2017-10-11T00:02:11.555Z,83.60
2017-10-11T00:04:38.717Z,82.90
2017-10-11T00:07:05.117Z,82.90
2017-10-11T00:09:31.669Z,82.70
2017-10-11T00:11:58.089Z,82.50
2017-10-11T00:14:24.480Z,82.60
2017-10-11T00:16:51.639Z,82.20
2017-10-11T00:19:18.040Z,82.20
2017-10-11T00:21:44.459Z,82.30
2017-10-11T00:24:10.870Z,82.30
2017-10-11T00:26:37.399Z,82.70
2017-10-11T00:29:03.790Z,82.90
2017-10-11T00:31:30.930Z,83.60
2017-10-11T00:33:57.366Z,83.60
2017-10-11T00:36:23.776Z,83.80
2017-10-11T00:38:50.935Z,83.90
2017-10-11T00:41:17.352Z,83.80
2017-10-11T00:43:43.803Z,84.20
2017-10-11T00:46:10.236Z,84.50
2017-10-11T00:48:36.648Z,85.10
2017-10-11T00:51:03.079Z,84.20
2017-10-11T00:53:29.542Z,83.50
2017-10-11T00:55:56.027Z,83.50
2017-10-11T00:58:22.572Z,83.30
2017-10-11T01:00:49.015Z,84.70
2017-10-11T01:03:15.443Z,84.10
2017-10-11T01:05:41.888Z,84.00
2017-10-11T01:08:08.292Z,83.30
2017-10-11T01:10:34.827Z,83.60
2017-10-11T01:13:01.235Z,83.50
2017-10-11T01:15:28.387Z,83.10
2017-10-11T01:17:55.574Z,82.70
2017-10-11T01:20:22.008Z,82.70
2017-10-11T01:22:48.487Z,83.40
2017-10-11T01:25:15.694Z,82.80
2017-10-11T01:27:42.294Z,82.80
2017-10-11T01:30:08.719Z,82.70
2017-10-11T01:32:35.911Z,82.80
2017-10-11T01:35:02.436Z,82.70
2017-10-11T01:37:28.884Z,82.90
2017-10-11T01:39:56.112Z,82.40
2017-10-11T01:42:22.548Z,82.40
2017-10-11T01:44:48.988Z,82.10
2017-10-11T01:47:15.459Z,82.20
2017-10-11T01:49:41.902Z,82.40
2017-10-11T01:52:09.104Z,83.30
2017-10-11T01:54:35.552Z,83.20
2017-10-11T01:57:02.001Z,83.20
2017-10-11T01:59:28.543Z,82.90
2017-10-11T02:01:54.980Z,82.50
2017-10-11T02:04:21.455Z,82.50
2017-10-11T02:06:47.931Z,82.60
2017-10-11T02:09:14.344Z,82.90
2017-10-11T02:11:40.760Z,82.60
2017-10-11T02:14:07.300Z,82.10
2017-10-11T02:16:33.708Z,81.90
2017-10-11T02:19:00.843Z,81.70
2017-10-11T02:21:27.286Z,81.70
2017-10-11T02:23:54.442Z,81.60
2017-10-11T02:26:21.603Z,82.40
2017-10-11T02:28:48.091Z,82.30
2017-10-11T02:31:14.551Z,81.90
2017-10-11T02:33:41.742Z,82.20
2017-10-11T02:36:08.164Z,82.10
2017-10-11T02:38:34.561Z,81.60
2017-10-11T02:41:00.990Z,82.20
2017-10-11T02:43:28.140Z,81.60
2017-10-11T02:45:54.562Z,81.60
2017-10-11T02:48:21.312Z,81.70
2017-10-11T02:50:47.753Z,82.10
2017-10-11T02:53:14.891Z,81.50
2017-10-11T02:55:41.324Z,81.50
2017-10-11T02:58:07.740Z,81.30
2017-10-11T03:00:34.124Z,80.90
2017-10-11T03:03:00.556Z,81.50
2017-10-11T03:05:26.973Z,81.50
2017-10-11T03:07:54.089Z,81.20
2017-10-11T03:10:20.612Z,81.00
2017-10-11T03:12:47.068Z,81.00
2017-10-11T03:15:13.500Z,80.90
2017-10-11T03:17:39.916Z,81.20
2017-10-11T03:20:06.307Z,80.90
2017-10-11T03:22:32.740Z,81.20
2017-10-11T03:24:59.115Z,81.20
2017-10-11T03:27:25.645Z,80.90
2017-10-11T03:29:52.788Z,80.90
2017-10-11T03:32:19.204Z,80.90
2017-10-11T03:34:45.813Z,80.30
2017-10-11T03:37:12.983Z,81.60
2017-10-11T03:39:39.407Z,81.60
2017-10-11T03:42:06.016Z,81.60
2017-10-11T03:44:32.431Z,81.10
2017-10-11T03:46:58.823Z,81.30
2017-10-11T03:49:25.247Z,81.10
2017-10-11T03:51:51.682Z,81.60
2017-10-11T03:54:18.108Z,81.30
2017-10-11T03:56:44.515Z,81.30
2017-10-11T03:59:10.956Z,81.30
2017-10-11T04:01:38.096Z,81.60
2017-10-11T04:04:04.535Z,81.50
2017-10-11T04:06:30.944Z,82.90
2017-10-11T04:08:57.377Z,82.70
2017-10-11T04:11:23.795Z,82.20
2017-10-11T04:13:50.243Z,81.50
2017-10-11T04:16:16.650Z,81.60
2017-10-11T04:18:43.096Z,81.30
2017-10-11T04:21:09.700Z,81.10
2017-10-11T04:23:36.131Z,81.30
2017-10-11T04:26:02.540Z,80.90
2017-10-11T04:28:29.742Z,81.20
2017-10-11T04:30:56.216Z,81.30
2017-10-11T04:33:23.581Z,81.00
2017-10-11T04:35:50.751Z,81.30
2017-10-11T04:38:17.240Z,81.30
2017-10-11T04:40:43.707Z,81.30
2017-10-11T04:43:10.872Z,81.60
2017-10-11T04:45:37.371Z,81.60
2017-10-11T04:48:04.620Z,81.80
2017-10-11T04:50:31.115Z,81.70
2017-10-11T04:52:57.534Z,81.80
2017-10-11T04:55:23.971Z,81.30
2017-10-11T04:57:50.359Z,80.70
2017-10-11T05:00:16.769Z,81.50
2017-10-11T05:02:43.167Z,81.70
2017-10-11T05:05:09.596Z,81.30
2017-10-11T05:07:35.994Z,81.20
2017-10-11T05:10:03.182Z,81.80
2017-10-11T05:12:29.570Z,81.70
2017-10-11T05:14:55.966Z,81.60
2017-10-11T05:17:23.133Z,82.60
2017-10-11T05:19:49.543Z,81.80
2017-10-11T05:22:16.096Z,81.70
2017-10-11T05:24:42.486Z,81.50
2017-10-11T05:27:08.908Z,81.80
2017-10-11T05:29:35.362Z,81.70
2017-10-11T05:32:01.804Z,81.90
2017-10-11T05:34:28.204Z,81.80
2017-10-11T05:36:55.360Z,82.10
2017-10-11T05:39:21.781Z,81.20
2017-10-11T05:41:48.944Z,81.80
2017-10-11T05:44:15.331Z,81.60
2017-10-11T05:46:41.731Z,81.50
2017-10-11T05:49:08.136Z,81.20
2017-10-11T05:51:35.299Z,81.30
2017-10-11T05:54:01.723Z,81.40
2017-10-11T05:56:28.104Z,81.10
2017-10-11T05:58:54.559Z,81.20
2017-10-11T06:01:20.947Z,82.00
2017-10-11T06:03:47.403Z,82.40
2017-10-11T06:06:13.802Z,82.10
2017-10-11T06:08:40.311Z,81.90
2017-10-11T06:11:07.428Z,81.80
2017-10-11T06:13:34.011Z,81.80
2017-10-11T06:16:00.444Z,81.90
2017-10-11T06:18:26.836Z,81.20
2017-10-11T06:20:53.247Z,83.00
2017-10-11T06:23:20.423Z,82.80
2017-10-11T06:25:46.823Z,82.60
2017-10-11T06:28:13.363Z,81.90
2017-10-11T06:30:40.036Z,82.70
2017-10-11T06:33:07.400Z,85.30
2017-10-11T06:35:34.585Z,85.10
2017-10-11T06:38:00.995Z,85.00
2017-10-11T06:40:28.256Z,84.00
2017-10-11T06:42:54.653Z,83.90
2017-10-11T06:45:21.055Z,83.80
2017-10-11T06:47:47.568Z,83.10
2017-10-11T06:50:14.084Z,83.40
2017-10-11T06:52:40.551Z,82.90
2017-10-11T06:55:07.104Z,82.50
2017-10-11T06:57:33.511Z,82.40
2017-10-11T06:59:59.916Z,82.60
2017-10-11T07:02:27.053Z,82.40
2017-10-11T07:04:54.221Z,82.30
2017-10-11T07:07:20.756Z,82.10
2017-10-11T07:09:47.195Z,82.10
2017-10-11T07:12:13.612Z,82.70
2017-10-11T07:14:40.768Z,82.00
2017-10-11T07:17:07.176Z,81.90
2017-10-11T07:19:33.591Z,81.70
2017-10-11T07:22:00.048Z,81.00
2017-10-11T07:24:27.264Z,81.40
2017-10-11T07:26:53.652Z,81.20
2017-10-11T07:29:20.058Z,81.20
2017-10-11T07:31:46.468Z,80.90
2017-10-11T07:34:12.895Z,81.20
2017-10-11T07:36:39.332Z,81.00
2017-10-11T07:39:05.737Z,80.60
2017-10-11T07:41:32.144Z,80.50
2017-10-11T07:43:59.343Z,80.40
2017-10-11T07:46:25.740Z,80.40
2017-10-11T07:48:53.145Z,79.10
2017-10-11T07:51:19.747Z,79.10
2017-10-11T07:54:01.279Z,78.30
2017-10-11T07:56:27.691Z,78.00
2017-10-11T07:58:54.136Z,77.70
2017-10-11T08:01:20.647Z,77.40
2017-10-11T08:03:47.081Z,77.50
2017-10-11T08:06:13.508Z,77.60
2017-10-11T08:08:39.897Z,77.10
2017-10-11T08:11:07.192Z,76.60
2017-10-11T08:13:33.606Z,76.60
2017-10-11T08:16:00.035Z,76.30
2017-10-11T08:18:27.192Z,76.00
2017-10-11T08:20:53.587Z,75.90
2017-10-11T08:23:20.257Z,75.60
2017-10-11T08:25:46.647Z,75.40
2017-10-11T08:28:13.032Z,75.20
2017-10-11T08:30:39.471Z,74.60
2017-10-11T08:33:05.904Z,74.70
2017-10-11T08:35:32.343Z,74.10
2017-10-11T08:37:58.723Z,73.70
2017-10-11T08:40:25.288Z,73.20
2017-10-11T08:42:51.678Z,73.00
2017-10-11T08:45:18.064Z,73.80
2017-10-11T08:47:44.555Z,74.10
2017-10-11T08:50:10.932Z,74.40
2017-10-11T08:52:37.354Z,74.60
2017-10-11T08:55:03.748Z,73.70
2017-10-11T08:57:30.164Z,73.80
2017-10-11T08:59:56.566Z,74.50
2017-10-11T09:02:22.999Z,75.80
2017-10-11T09:04:49.418Z,76.50
2017-10-11T09:07:15.833Z,75.20
2017-10-11T09:09:43.120Z,76.20
2017-10-11T09:12:09.529Z,76.10
2017-10-11T09:14:35.964Z,75.20
2017-10-11T09:17:02.667Z,75.10
2017-10-11T09:19:29.159Z,75.90
2017-10-11T09:21:55.568Z,74.10
2017-10-11T09:24:22.732Z,74.50
2017-10-11T09:26:49.119Z,74.50
2017-10-11T09:29:16.327Z,73.80
2017-10-11T09:31:42.755Z,73.70
2017-10-11T09:34:09.143Z,72.00
2017-10-11T09:36:35.583Z,71.80
2017-10-11T09:39:02.788Z,72.00
2017-10-11T09:41:29.492Z,72.00
2017-10-11T09:43:55.892Z,71.70
2017-10-11T09:46:22.292Z,73.50
2017-10-11T09:48:48.712Z,72.70
2017-10-11T09:51:15.168Z,70.40
2017-10-11T09:53:41.705Z,70.90
2017-10-11T09:56:08.114Z,69.20
2017-10-11T09:58:34.546Z,68.10
2017-10-11T10:01:00.966Z,67.20
2017-10-11T10:03:27.365Z,68.30
2017-10-11T10:05:54.523Z,67.60
2017-10-11T10:08:21.652Z,68.60
2017-10-11T10:10:48.047Z,68.50
2017-10-11T10:13:14.503Z,67.10
2017-10-11T10:15:40.932Z,67.40
2017-10-11T10:18:07.483Z,66.80
2017-10-11T10:20:33.876Z,68.60
2017-10-11T10:23:00.287Z,67.60
2017-10-11T10:25:26.691Z,66.90
2017-10-11T10:27:53.096Z,67.00
2017-10-11T10:30:19.504Z,65.10
2017-10-11T10:32:45.974Z,63.00
2017-10-11T10:35:12.427Z,63.00
2017-10-11T10:37:38.864Z,63.20
2017-10-11T10:40:06.056Z,63.40
2017-10-11T10:42:32.456Z,63.50
2017-10-11T10:44:59.611Z,58.90
2017-10-11T10:47:26.751Z,60.30
2017-10-11T10:49:53.920Z,58.70
2017-10-11T10:52:20.344Z,58.60
2017-10-11T10:54:47.489Z,60.30
2017-10-11T10:57:14.951Z,58.70
2017-10-11T10:59:42.071Z,58.20
2017-10-11T11:02:08.473Z,58.20
2017-10-11T11:04:34.887Z,57.70
2017-10-11T11:07:01.281Z,57.80
2017-10-11T11:09:28.418Z,55.60
2017-10-11T11:11:54.822Z,55.60
2017-10-11T11:14:21.243Z,55.50
2017-10-11T11:16:47.712Z,54.40
2017-10-11T11:19:14.104Z,54.30
2017-10-11T11:21:40.524Z,54.10
2017-10-11T11:24:06.908Z,53.00
2017-10-11T11:26:33.328Z,52.90
2017-10-11T11:28:59.719Z,51.80
2017-10-11T11:31:26.250Z,51.40
2017-10-11T11:33:52.656Z,52.80
2017-10-11T11:36:19.056Z,50.00
2017-10-11T11:38:45.466Z,49.80
2017-10-11T11:41:11.868Z,49.80
2017-10-11T11:43:38.336Z,49.40
2017-10-11T11:46:04.765Z,48.10
2017-10-11T11:48:31.171Z,48.80
2017-10-11T11:50:58.419Z,48.40
2017-10-11T11:53:25.579Z,51.10
2017-10-11T11:55:52.023Z,51.10
2017-10-11T11:58:18.460Z,47.70
2017-10-11T12:00:44.876Z,46.30
2017-10-11T12:03:11.295Z,45.00
2017-10-11T12:05:38.415Z,46.90
2017-10-11T12:08:04.973Z,46.90
2017-10-11T12:10:32.096Z,46.90
2017-10-11T12:12:58.518Z,46.50
2017-10-11T12:15:24.956Z,46.00
2017-10-11T12:17:51.370Z,46.00
2017-10-11T12:20:17.886Z,46.00
2017-10-11T12:22:44.292Z,45.90
2017-10-11T12:25:11.415Z,46.60
2017-10-11T12:27:37.824Z,46.70
2017-10-11T12:30:04.280Z,46.20
2017-10-11T12:32:30.712Z,45.30
2017-10-11T12:34:57.115Z,45.40
2017-10-11T12:37:23.532Z,44.80
2017-10-11T12:39:50.047Z,45.50
2017-10-11T12:42:17.183Z,47.00
2017-10-11T12:44:43.615Z,46.90
2017-10-11T12:47:10.032Z,47.40
2017-10-11T12:49:36.427Z,47.10
2017-10-11T12:52:02.851Z,47.90
2017-10-11T12:54:29.259Z,46.00
2017-10-11T12:56:56.396Z,47.00
2017-10-11T12:59:22.804Z,47.00
2017-10-11T13:01:49.207Z,47.60
2017-10-11T13:04:15.653Z,48.30
2017-10-11T13:06:42.052Z,46.50
2017-10-11T13:09:08.487Z,47.70
2017-10-11T13:11:34.924Z,46.10
2017-10-11T13:14:01.331Z,47.90
2017-10-11T13:16:28.503Z,46.90
2017-10-11T13:18:55.064Z,46.90
2017-10-11T13:21:21.478Z,46.00
2017-10-11T13:23:48.104Z,44.40
2017-10-11T13:26:14.519Z,45.20
2017-10-11T13:28:41.644Z,45.80
2017-10-11T13:31:08.061Z,45.10
2017-10-11T13:33:34.460Z,45.40
2017-10-11T13:36:00.848Z,46.80
2017-10-11T13:38:28.935Z,46.60
2017-10-11T13:40:55.311Z,46.50
2017-10-11T13:43:21.716Z,46.40
2017-10-11T13:45:48.956Z,46.60
2017-10-11T13:48:16.094Z,49.90
2017-10-11T13:50:43.399Z,49.80
2017-10-11T13:53:09.860Z,49.70
2017-10-11T13:55:36.259Z,49.30
2017-10-11T13:58:02.746Z,50.40
2017-10-11T14:00:29.138Z,51.50
2017-10-11T14:02:55.579Z,49.90
2017-10-11T14:05:21.991Z,50.80
2017-10-11T14:07:48.380Z,52.70
2017-10-11T14:10:15.575Z,52.10
2017-10-11T14:12:42.735Z,53.70
2017-10-11T14:15:09.174Z,53.70
2017-10-11T14:17:35.648Z,53.30
2017-10-11T14:20:02.057Z,53.60
2017-10-11T14:22:28.454Z,54.60
2017-10-11T14:24:54.894Z,54.90
2017-10-11T14:27:21.328Z,55.20
2017-10-11T14:29:47.784Z,55.80
2017-10-11T14:32:14.493Z,56.40
2017-10-11T14:34:41.092Z,56.20
2017-10-11T14:37:07.996Z,56.80
2017-10-11T14:39:34.447Z,56.50
2017-10-11T14:42:01.065Z,56.50
2017-10-11T14:44:27.576Z,56.80
2017-10-11T14:46:53.971Z,56.70
2017-10-11T14:49:20.401Z,57.00
2017-10-11T14:51:47.551Z,58.00
2017-10-11T14:54:13.987Z,57.90
2017-10-11T14:56:42.192Z,58.50
2017-10-11T14:59:08.657Z,58.50
2017-10-11T15:01:35.216Z,59.80
2017-10-11T15:04:02.439Z,59.30
2017-10-11T15:06:29.571Z,59.00
2017-10-11T15:08:55.963Z,59.00
2017-10-11T15:11:22.499Z,59.70
2017-10-11T15:13:48.922Z,61.00
2017-10-11T15:16:15.324Z,60.10
2017-10-11T15:18:42.107Z,59.30
2017-10-11T15:21:09.376Z,59.80
2017-10-11T15:23:35.818Z,59.80
2017-10-11T15:26:02.246Z,59.90
2017-10-11T15:28:29.371Z,61.30
2017-10-11T15:30:55.955Z,61.30
2017-10-11T15:33:23.197Z,62.70
2017-10-11T15:35:49.619Z,62.60
2017-10-11T15:38:16.148Z,62.90
2017-10-11T15:40:43.464Z,62.80
2017-10-11T15:43:10.036Z,62.80
2017-10-11T15:45:36.455Z,62.90
2017-10-11T15:48:03.591Z,65.30
2017-10-11T15:50:30.399Z,65.20
2017-10-11T15:52:57.006Z,65.60
2017-10-11T15:55:23.419Z,66.30
2017-10-11T15:57:50.575Z,66.80
2017-10-11T16:00:17.744Z,66.80
2017-10-11T16:02:44.156Z,66.80
2017-10-11T16:05:11.432Z,69.50
2017-10-11T16:07:37.808Z,69.50
2017-10-11T16:10:04.213Z,70.10
2017-10-11T16:12:30.636Z,70.30
2017-10-11T16:14:57.049Z,71.30
2017-10-11T16:17:23.479Z,71.40
2017-10-11T16:19:49.899Z,72.50
2017-10-11T16:22:16.294Z,72.60
2017-10-11T16:24:42.737Z,72.80
2017-10-11T16:27:09.124Z,73.60
2017-10-11T16:29:35.543Z,74.60
2017-10-11T16:32:02.656Z,74.10
2017-10-11T16:34:29.109Z,74.00
2017-10-11T16:36:55.492Z,74.70
2017-10-11T16:39:22.181Z,75.00
2017-10-11T16:41:48.800Z,75.40
2017-10-11T16:44:15.236Z,75.30
2017-10-11T16:46:41.668Z,75.90
2017-10-11T16:49:08.091Z,76.30
2017-10-11T16:51:34.604Z,76.90
2017-10-11T16:54:01.064Z,77.50
2017-10-11T16:56:27.711Z,77.40
2017-10-11T16:58:54.887Z,77.40
2017-10-11T17:01:22.208Z,77.80
2017-10-11T17:03:49.457Z,78.30
2017-10-11T17:06:16.888Z,79.30
2017-10-11T17:08:43.312Z,78.40
2017-10-11T17:11:10.188Z,78.60
2017-10-11T17:13:36.624Z,78.50
2017-10-11T17:16:03.058Z,78.50
2017-10-11T17:18:29.494Z,78.80
2017-10-11T17:20:55.926Z,78.90
2017-10-11T17:23:22.351Z,79.50
2017-10-11T17:25:48.759Z,79.60
2017-10-11T17:28:15.179Z,79.30
2017-10-11T17:30:41.628Z,79.40
2017-10-11T17:33:08.044Z,80.00
2017-10-11T17:35:34.575Z,80.20
2017-10-11T17:38:00.960Z,80.40
2017-10-11T17:40:27.380Z,80.40
2017-10-11T17:42:53.840Z,80.90
2017-10-11T17:45:20.251Z,81.30
2017-10-11T17:47:46.665Z,81.50
2017-10-11T17:50:13.068Z,81.80
2017-10-11T17:52:39.843Z,81.80
2017-10-11T17:55:06.412Z,81.70
2017-10-11T17:57:33.015Z,81.50
2017-10-11T18:00:00.388Z,81.30
2017-10-11T18:02:27.581Z,82.50
2017-10-11T18:04:54.108Z,81.60
2017-10-11T18:07:20.810Z,81.80
2017-10-11T18:09:47.744Z,82.00
2017-10-11T18:12:14.204Z,82.20
2017-10-11T18:14:40.672Z,82.50
2017-10-11T18:17:09.430Z,82.50
2017-10-11T18:19:36.949Z,83.40
2017-10-11T18:22:03.664Z,83.10
2017-10-11T18:24:30.380Z,83.50
2017-10-11T18:26:57.817Z,83.80
2017-10-11T18:29:26.022Z,83.80
2017-10-11T18:31:53.390Z,83.80
2017-10-11T18:34:20.744Z,83.70
2017-10-11T18:36:48.323Z,83.60
2017-10-11T18:39:15.397Z,83.60
2017-10-11T18:41:42.840Z,83.30
2017-10-11T18:44:15.666Z,83.00
2017-10-11T18:46:42.254Z,83.30
2017-10-11T18:49:11.038Z,82.90
2017-10-11T18:51:37.599Z,82.90
2017-10-11T18:54:04.746Z,83.10
2017-10-11T18:56:31.199Z,83.80
2017-10-11T18:58:58.477Z,83.60
2017-10-11T19:01:25.051Z,83.60
2017-10-11T19:03:52.364Z,83.50
2017-10-11T19:06:22.680Z,83.70
2017-10-11T19:08:49.318Z,83.80
2017-10-11T19:11:15.841Z,84.20
2017-10-11T19:13:42.545Z,84.30
2017-10-11T19:16:09.181Z,84.30
2017-10-11T19:18:36.008Z,83.80
2017-10-11T19:21:02.715Z,84.10
2017-10-11T19:23:29.636Z,84.30
2017-10-11T19:25:57.247Z,84.10
2017-10-11T19:28:23.954Z,84.00
2017-10-11T19:30:50.626Z,83.80
2017-10-11T19:33:17.067Z,84.00
2017-10-11T19:35:43.833Z,84.00
2017-10-11T19:38:11.396Z,84.90
2017-10-11T19:40:39.364Z,84.80
2017-10-11T19:43:05.988Z,85.10
2017-10-11T19:45:33.548Z,85.10
2017-10-11T19:48:00.176Z,85.50
2017-10-11T19:50:27.069Z,85.20
2017-10-11T19:52:53.550Z,85.80
2017-10-11T19:55:25.788Z,85.50
2017-10-11T19:57:52.972Z,85.50
2017-10-11T20:00:25.828Z,85.30
2017-10-11T20:02:53.296Z,85.90
2017-10-11T20:05:21.362Z,86.00
2017-10-11T20:07:50.214Z,86.00
2017-10-11T20:10:16.758Z,86.00
2017-10-11T20:12:43.323Z,85.60
2017-10-11T20:15:09.894Z,85.30
2017-10-11T20:17:36.607Z,85.40
2017-10-11T20:20:03.201Z,84.90
2017-10-11T20:22:29.993Z,84.60
2017-10-11T20:24:56.525Z,84.70
2017-10-11T20:27:25.177Z,84.70
2017-10-11T20:29:51.816Z,84.40
2017-10-11T20:32:21.027Z,84.40
2017-10-11T20:34:47.551Z,84.40
2017-10-11T20:37:14.945Z,85.40
2017-10-11T20:39:44.524Z,84.50
2017-10-11T20:42:11.092Z,84.40
2017-10-11T20:44:39.040Z,83.90
2017-10-11T20:47:06.400Z,84.00
2017-10-11T20:49:32.942Z,84.00
2017-10-11T20:51:59.458Z,83.70
2017-10-11T20:54:26.011Z,83.80
2017-10-11T20:56:52.735Z,84.00
2017-10-11T20:59:19.244Z,84.30
2017-10-11T21:01:47.344Z,83.80
2017-10-11T21:04:13.907Z,83.80
2017-10-11T21:06:40.516Z,83.60
2017-10-11T21:09:06.931Z,83.50
2017-10-11T21:11:33.568Z,83.50
2017-10-11T21:14:00.401Z,84.40
2017-10-11T21:16:27.657Z,84.40
2017-10-11T21:18:56.090Z,84.30
2017-10-11T21:21:22.583Z,84.20
2017-10-11T21:23:49.215Z,84.30
2017-10-11T21:26:16.590Z,84.20
2017-10-11T21:28:43.156Z,84.30
2017-10-11T21:31:09.732Z,84.30
2017-10-11T21:33:39.839Z,84.60
2017-10-11T21:36:06.412Z,84.50
2017-10-11T21:38:41.707Z,84.30
2017-10-11T21:41:08.472Z,84.30
2017-10-11T21:43:35.620Z,83.80
2017-10-11T21:46:03.708Z,84.70
2017-10-11T21:48:31.241Z,84.60
2017-10-11T21:50:57.951Z,83.60
2017-10-11T21:53:24.612Z,83.70
2017-10-11T21:55:51.273Z,83.70
2017-10-11T21:58:18.143Z,83.50
2017-10-11T22:00:46.783Z,83.80
2017-10-11T22:03:13.364Z,83.80
2017-10-11T22:05:40.000Z,83.70
2017-10-11T22:08:06.540Z,83.40
2017-10-11T22:10:32.971Z,83.80
2017-10-11T22:13:01.631Z,83.20
2017-10-11T22:15:29.880Z,83.90
2017-10-11T22:17:56.440Z,83.90
2017-10-11T22:20:23.237Z,83.90
2017-10-11T22:22:49.836Z,83.60
2017-10-11T22:25:16.415Z,83.60
2017-10-11T22:27:43.696Z,83.40
2017-10-11T22:30:10.215Z,83.40
2017-10-11T22:32:42.669Z,83.30
2017-10-11T22:35:09.147Z,83.20
2017-10-11T22:37:35.598Z,83.30
2017-10-11T22:40:02.744Z,82.90
2017-10-11T22:42:29.911Z,83.20
2017-10-11T22:44:56.299Z,83.20
2017-10-11T22:47:22.720Z,83.00
2017-10-11T22:49:49.148Z,83.20
2017-10-11T22:52:15.548Z,83.00
2017-10-11T22:54:41.995Z,83.00
2017-10-11T22:57:08.423Z,82.90
2017-10-11T22:59:34.852Z,82.90
2017-10-11T23:02:01.387Z,82.90
2017-10-11T23:04:27.783Z,82.70
2017-10-11T23:06:54.951Z,82.60
2017-10-11T23:09:21.371Z,82.60
2017-10-11T23:11:48.542Z,82.70
2017-10-11T23:14:14.980Z,82.50
2017-10-11T23:16:41.504Z,83.40
2017-10-11T23:19:07.927Z,84.10
2017-10-11T23:21:34.376Z,83.90
2017-10-11T23:24:00.798Z,83.70
2017-10-11T23:26:27.241Z,83.50
2017-10-11T23:28:53.655Z,83.30
2017-10-11T23:31:20.812Z,83.00
2017-10-11T23:33:47.998Z,83.90
2017-10-11T23:36:14.404Z,83.90
2017-10-11T23:38:40.848Z,84.10
2017-10-11T23:41:07.231Z,84.00
2017-10-11T23:43:33.635Z,83.60
2017-10-11T23:46:00.784Z,83.50
2017-10-11T23:48:27.176Z,83.50
2017-10-11T23:50:54.325Z,82.90
2017-10-11T23:53:21.498Z,82.60
2017-10-11T23:55:50.232Z,82.70
2017-10-11T23:58:16.649Z,82.60
